Pagrindinis puslapis
METAR-TAF:

METAR-TAF

Oro uostai :

Wink, Teksasas, Jungtinės Amerikos Valstijos

platuma: 31-46-47N, ilguma: 103-12-05W, Aukštis: 860 m

Dabartinis oras

Ataskaita buvo paskelbta 15 minutes, ne 03:53 UTC
Vėjas 11 kt iš Pietryčių
Temperatūra 23°C
Drėgmė 44%
Slėgis 1020 hPa
Matomumas: 16.1 km
Giedras dangus

METAR: KINK 140353Z AUTO 13011KT 10SM CLR 23/10 A3013 RMK AO2 SLP168 T02280100

Laikas: 23:08 (04:08 UTC)

Prognozė

Ataskaita buvo paskelbta 4 valandos ir 48 minutes, ne 23:20 UTC
Prognozė galioja nuo 14 metu 00 UTC su 14 metu 24 UTC
Vėjas 11 kt iš Pietryčių
Matomumas: 10 km
Mažai debesys ne aukštis 25000 ft

TAF: KINK 132320Z 1400/1424 13011KT P6SM FEW250

Orai ataskaitas ir orų prognozės (METAR, TAF).

turimą stotys yra geltonos ir raudonos taškus žemėlapyje.

Perkelti pele per norėdami pamatyti stoties vardą.

Tada spustelėkite, norėdami matyti oro stebėjimo ir prognozės.

Norėdami pakeisti žemėlapį: spustelėkite ant žalios mygtukų su juodo kryžiaus žemyn,; žalią mygtuką su brūkšneliu, jei norite nutolinti; arba žalių rodyklių gretimoms žemėlapius.


METAR-TAF: